Time;durP1;ratioP1;P1;durP2;ratioP2;P2;SDS_P1;SDS_P2;PMS_P1;PMS_P2;Temp;Humidity;BMP_temperature;BMP_pressure;BME280_temperature;BME280_humidity;BME280_pressure;Samples;Min_cycle;Max_cycle;Signal;HPM_P1;HPM_P2
2021/04/03 00:00:17;;;;;;;2.13;0.30;;;6.10;72.70;;;;;;5114402;28;20092;-72
2021/04/03 00:02:42;;;;;;;0.80;0.20;;;6.10;72.70;;;;;;5114436;28;20119;-73
2021/04/03 00:05:10;;;;;;;1.20;0.20;;;6.00;72.70;;;;;;5114770;28;20162;-72
2021/04/03 00:07:37;;;;;;;0.43;0.30;;;6.00;72.70;;;;;;5114294;28;20048;-72
2021/04/03 00:10:08;;;;;;;0.75;0.30;;;6.10;72.80;;;;;;5114847;28;20040;-72
2021/04/03 00:12:34;;;;;;;0.10;0.10;;;6.00;72.70;;;;;;5114300;28;20152;-73
2021/04/03 00:15:00;;;;;;;0.75;0.40;;;6.00;72.70;;;;;;5114548;28;20110;-73
2021/04/03 00:17:26;;;;;;;0.43;0.30;;;6.00;72.70;;;;;;5114292;28;20541;-72
2021/04/03 00:19:54;;;;;;;3.22;0.60;;;6.10;72.70;;;;;;5096462;28;20074;-72
2021/04/03 00:22:22;;;;;;;0.20;0.20;;;6.00;72.60;;;;;;5114745;28;20035;-72
2021/04/03 00:24:48;;;;;;;0.47;0.30;;;6.10;72.60;;;;;;5114738;28;20416;-72
2021/04/03 00:27:14;;;;;;;0.88;0.22;;;6.00;72.60;;;;;;5114523;28;20126;-72
2021/04/03 00:29:40;;;;;;;2.05;0.40;;;6.00;72.50;;;;;;5113814;28;20443;-72
2021/04/03 00:32:06;;;;;;;1.67;0.50;;;6.00;72.50;;;;;;5113393;28;20031;-72
2021/04/03 00:34:31;;;;;;;1.85;0.50;;;6.00;72.50;;;;;;5096530;28;20032;-72
2021/04/03 00:36:57;;;;;;;1.75;0.40;;;6.00;72.50;;;;;;5094584;28;20512;-72
2021/04/03 00:39:23;;;;;;;1.88;0.45;;;6.00;72.50;;;;;;5114356;28;20393;-72
2021/04/03 00:41:48;;;;;;;1.05;0.30;;;6.00;72.40;;;;;;5114542;28;20036;-72
2021/04/03 00:44:14;;;;;;;0.88;0.40;;;6.00;72.40;;;;;;5113971;28;20039;-72
2021/04/03 00:46:40;;;;;;;0.17;0.10;;;6.00;72.40;;;;;;5114070;28;20434;-72
2021/04/03 00:49:06;;;;;;;1.00;0.25;;;6.00;72.40;;;;;;5113860;28;20481;-72
2021/04/03 00:51:33;;;;;;;1.45;0.22;;;6.00;72.50;;;;;;5095481;28;20043;-72
2021/04/03 00:53:59;;;;;;;0.43;0.20;;;6.00;72.40;;;;;;5113729;28;20039;-72
2021/04/03 00:56:25;;;;;;;0.95;0.25;;;6.00;72.40;;;;;;5113962;28;20039;-72
2021/04/03 00:58:51;;;;;;;0.95;0.35;;;6.00;72.40;;;;;;5113938;28;20512;-72
2021/04/03 01:01:17;;;;;;;1.75;0.20;;;6.10;72.40;;;;;;5095923;28;20043;-72
2021/04/03 01:03:42;;;;;;;0.10;0.10;;;6.00;72.30;;;;;;5113649;28;20043;-73
2021/04/03 01:06:08;;;;;;;0.55;0.15;;;6.00;72.40;;;;;;5113421;28;20044;-72
2021/04/03 01:08:34;;;;;;;1.02;0.30;;;6.00;72.40;;;;;;5113676;28;20054;-72
2021/04/03 01:11:02;;;;;;;0.73;0.20;;;6.00;72.40;;;;;;5113564;28;20052;-72
2021/04/03 01:13:50;;;;;;;2.25;0.43;;;6.00;72.40;;;;;;5113806;28;20052;-72
2021/04/03 01:16:28;;;;;;;0.75;0.20;;;6.00;72.40;;;;;;5113706;28;20039;-72
2021/04/03 01:19:18;;;;;;;1.45;0.30;;;6.00;72.30;;;;;;5113528;28;20114;-72
2021/04/03 01:22:14;;;;;;;2.08;0.40;;;6.00;72.40;;;;;;5113378;28;20050;-72
2021/04/03 01:25:01;;;;;;;1.20;0.30;;;6.00;72.30;;;;;;5113599;28;20052;-73
2021/04/03 01:27:28;;;;;;;1.10;0.10;;;5.90;72.20;;;;;;5113159;28;20092;-72
2021/04/03 01:30:06;;;;;;;0.20;0.15;;;6.00;72.20;;;;;;5113115;28;20509;-72
2021/04/03 01:32:51;;;;;;;2.17;0.25;;;6.00;72.20;;;;;;5096196;28;20051;-73
2021/04/03 01:35:38;;;;;;;0.15;0.10;;;6.00;72.20;;;;;;5113612;28;20097;-72
2021/04/03 01:38:09;;;;;;;0.60;0.20;;;6.00;72.20;;;;;;5113650;28;20032;-73
2021/04/03 01:40:36;;;;;;;2.50;0.30;;;6.20;72.20;;;;;;5094662;28;20488;-72
2021/04/03 01:43:17;;;;;;;2.47;0.45;;;6.10;72.20;;;;;;5112114;28;20044;-72
2021/04/03 01:45:45;;;;;;;0.88;0.30;;;6.10;72.20;;;;;;5113578;28;20044;-72
2021/04/03 01:48:15;;;;;;;0.40;0.20;;;6.10;72.10;;;;;;5113242;28;20498;-72
2021/04/03 01:50:43;;;;;;;0.30;0.10;;;6.10;72.10;;;;;;5113298;28;20488;-73
2021/04/03 01:53:09;;;;;;;0.38;0.20;;;6.10;72.10;;;;;;5094573;28;20043;-73
2021/04/03 01:55:35;;;;;;;1.35;0.30;;;6.10;72.10;;;;;;5113317;28;20035;-72
2021/04/03 01:58:02;;;;;;;0.20;0.20;;;6.10;72.10;;;;;;5113024;28;20103;-72
2021/04/03 02:00:30;;;;;;;0.95;0.20;;;6.00;72.10;;;;;;5094478;28;20420;-72
2021/04/03 02:02:56;;;;;;;0.52;0.20;;;6.10;72.20;;;;;;5094299;28;20485;-72
2021/04/03 02:05:23;;;;;;;0.88;0.30;;;6.10;72.20;;;;;;5112600;28;20477;-72
2021/04/03 02:07:50;;;;;;;0.20;0.17;;;6.10;72.20;;;;;;5094683;28;20054;-72
2021/04/03 02:10:22;;;;;;;1.73;0.30;;;6.10;72.20;;;;;;5112986;28;20036;-73
2021/04/03 02:12:48;;;;;;;0.30;0.13;;;6.10;72.20;;;;;;5112498;28;20031;-73
2021/04/03 02:15:15;;;;;;;0.40;0.20;;;6.10;72.20;;;;;;5094340;28;20071;-72
2021/04/03 02:17:46;;;;;;;0.95;0.30;;;6.10;72.20;;;;;;5112659;28;20346;-72
2021/04/03 02:20:13;;;;;;;0.68;0.38;;;6.10;72.10;;;;;;5112329;28;20123;-72
2021/04/03 02:22:42;;;;;;;1.65;0.30;;;6.10;72.10;;;;;;5113000;28;20062;-72
2021/04/03 02:25:10;;;;;;;1.90;0.50;;;6.10;72.00;;;;;;5112478;28;20093;-72
2021/04/03 02:27:36;;;;;;;1.13;0.35;;;6.10;72.00;;;;;;5092324;28;20494;-72
2021/04/03 02:32:46;;;;;;;1.88;0.40;;;6.20;71.90;;;;;;5112377;28;20043;-72
2021/04/03 02:35:13;;;;;;;1.55;0.28;;;6.10;71.80;;;;;;5112213;28;20062;-72
2021/04/03 02:37:40;;;;;;;1.67;0.47;;;6.20;71.80;;;;;;5112316;28;20165;-72
2021/04/03 02:40:09;;;;;;;0.88;0.30;;;6.10;71.70;;;;;;5112542;28;20036;-72
2021/04/03 02:42:40;;;;;;;0.95;0.40;;;6.20;72.40;;;;;;5112118;28;20407;-72
2021/04/03 02:45:08;;;;;;;;;;;6.20;71.60;;;;;;5112942;28;20046;-72
2021/04/03 02:47:42;;;;;;;1.80;0.30;;;6.10;71.50;;;;;;5112133;28;19962;-72
2021/04/03 02:50:14;;;;;;;1.45;0.40;;;6.20;71.50;;;;;;5094028;28;20134;-72
2021/04/03 02:52:41;;;;;;;1.50;0.40;;;6.20;71.50;;;;;;5112529;28;20039;-72
2021/04/03 02:55:08;;;;;;;0.75;0.47;;;6.10;71.40;;;;;;5113923;28;20038;-72
2021/04/03 02:57:36;;;;;;;0.68;0.20;;;6.00;71.40;;;;;;5115618;28;20035;-72
2021/04/03 03:00:05;;;;;;;1.85;0.60;;;6.10;71.50;;;;;;5096496;28;20040;-73
2021/04/03 03:02:33;;;;;;;1.25;0.25;;;6.10;71.50;;;;;;5115676;28;20443;-72
2021/04/03 03:05:02;;;;;;;1.75;0.30;;;6.10;71.60;;;;;;5115403;28;20040;-73
2021/04/03 03:07:28;;;;;;;0.70;0.30;;;6.00;71.50;;;;;;5097090;28;20048;-72
2021/04/03 03:09:55;;;;;;;2.63;0.55;;;6.00;71.50;;;;;;5115243;28;20109;-73
2021/04/03 03:12:24;;;;;;;2.10;0.40;;;6.10;71.60;;;;;;5115490;28;20031;-72
2021/04/03 03:14:52;;;;;;;1.75;0.40;;;6.00;71.60;;;;;;5115669;28;20063;-72
2021/04/03 03:17:18;;;;;;;1.05;0.40;;;6.00;71.60;;;;;;5115290;28;20039;-72
2021/04/03 03:19:44;;;;;;;0.98;0.50;;;6.00;71.60;;;;;;5115355;28;20055;-72
2021/04/03 03:22:10;;;;;;;0.38;0.20;;;6.00;71.60;;;;;;5095608;28;20089;-72
2021/04/03 03:24:37;;;;;;;0.52;0.38;;;5.90;71.60;;;;;;5097361;28;20130;-73
2021/04/03 03:27:05;;;;;;;0.77;0.35;;;6.00;71.70;;;;;;5115288;28;20048;-72
2021/04/03 03:29:32;;;;;;;1.10;0.32;;;5.90;71.80;;;;;;5115396;28;20040;-72
2021/04/03 03:31:58;;;;;;;1.40;0.43;;;5.90;71.80;;;;;;5115366;28;20054;-72
2021/04/03 03:34:24;;;;;;;1.05;0.30;;;5.90;71.90;;;;;;5096781;28;20485;-73
2021/04/03 03:36:50;;;;;;;0.30;0.20;;;5.80;72.00;;;;;;5096972;28;20031;-72
2021/04/03 03:39:16;;;;;;;0.82;0.30;;;5.80;72.00;;;;;;5097425;28;20047;-72
2021/04/03 03:41:44;;;;;;;2.25;0.50;;;5.80;72.10;;;;;;5094931;28;20043;-72
2021/04/03 03:44:11;;;;;;;1.95;0.50;;;5.70;72.20;;;;;;5114627;28;20130;-72
2021/04/03 03:46:36;;;;;;;1.50;0.25;;;5.70;72.30;;;;;;5097143;28;20126;-72
2021/04/03 03:49:03;;;;;;;0.93;0.38;;;5.60;72.30;;;;;;5097056;28;20126;-72
2021/04/03 03:51:29;;;;;;;0.43;0.13;;;5.60;72.40;;;;;;5114825;28;20161;-73
2021/04/03 03:53:55;;;;;;;1.17;0.30;;;5.60;72.50;;;;;;5096333;28;20035;-72
2021/04/03 03:56:21;;;;;;;1.63;0.40;;;5.60;72.60;;;;;;5095400;28;20127;-73
2021/04/03 03:58:47;;;;;;;1.73;0.40;;;5.50;72.80;;;;;;5079481;28;20063;-73
2021/04/03 04:01:13;;;;;;;1.15;0.38;;;5.40;72.60;;;;;;5114559;28;20031;-73
2021/04/03 04:03:39;;;;;;;0.95;0.35;;;5.40;72.80;;;;;;5114965;28;20389;-72
2021/04/03 04:06:05;;;;;;;0.75;0.25;;;5.40;72.80;;;;;;5074929;28;20445;-72
2021/04/03 04:08:32;;;;;;;2.85;0.75;;;5.40;72.90;;;;;;5094511;28;20040;-73
2021/04/03 04:10:58;;;;;;;0.82;0.30;;;5.30;72.90;;;;;;5115040;28;20465;-72
2021/04/03 04:13:23;;;;;;;0.22;0.20;;;5.40;73.00;;;;;;5095224;28;20051;-72
2021/04/03 04:15:51;;;;;;;1.02;0.20;;;5.30;73.10;;;;;;5114814;28;20031;-72
2021/04/03 04:18:17;;;;;;;1.05;0.30;;;5.20;73.10;;;;;;5114236;28;20031;-72
2021/04/03 04:20:42;;;;;;;1.05;0.20;;;5.20;73.20;;;;;;5096336;28;20615;-72
2021/04/03 04:23:08;;;;;;;1.25;0.38;;;5.20;73.30;;;;;;5114075;28;20046;-73
2021/04/03 04:25:34;;;;;;;2.15;0.30;;;5.10;73.30;;;;;;5114172;28;20039;-72
2021/04/03 04:28:00;;;;;;;3.10;0.65;;;5.10;73.40;;;;;;5114773;28;20067;-72
2021/04/03 04:30:27;;;;;;;0.30;0.30;;;5.10;73.50;;;;;;5095786;28;20050;-72
2021/04/03 04:32:53;;;;;;;1.30;0.20;;;5.10;73.60;;;;;;5114129;28;20062;-73
2021/04/03 04:35:19;;;;;;;2.08;0.50;;;5.00;73.50;;;;;;5095895;28;20497;-72
2021/04/03 04:37:45;;;;;;;0.70;0.40;;;5.00;73.60;;;;;;5114129;28;20039;-73
2021/04/03 04:40:13;;;;;;;2.38;0.68;;;4.90;73.70;;;;;;5114478;28;20118;-73
2021/04/03 04:42:43;;;;;;;2.72;0.43;;;4.90;73.80;;;;;;5114261;28;20044;-72
2021/04/03 04:45:10;;;;;;;1.30;0.32;;;4.90;73.90;;;;;;5095494;28;20126;-72
2021/04/03 04:47:36;;;;;;;0.82;0.20;;;4.80;73.80;;;;;;5114062;28;20051;-72
2021/04/03 04:50:04;;;;;;;1.17;0.57;;;4.90;73.90;;;;;;5113886;28;20482;-72
2021/04/03 04:52:30;;;;;;;1.80;0.52;;;4.80;73.90;;;;;;5113798;28;20493;-72
2021/04/03 04:54:56;;;;;;;1.25;0.43;;;4.90;74.10;;;;;;5096066;28;20482;-72
2021/04/03 04:57:22;;;;;;;3.20;0.40;;;4.80;74.20;;;;;;5113671;28;20040;-72
2021/04/03 04:59:47;;;;;;;1.13;0.40;;;4.80;74.10;;;;;;5113585;28;20051;-72
2021/04/03 05:02:13;;;;;;;0.32;0.22;;;4.80;74.20;;;;;;5095860;28;20066;-73
2021/04/03 05:04:39;;;;;;;1.80;0.25;;;4.80;74.20;;;;;;5114510;28;20139;-73
2021/04/03 05:07:05;;;;;;;2.80;0.45;;;4.70;74.10;;;;;;5114171;28;20042;-72
2021/04/03 05:09:31;;;;;;;0.65;0.10;;;4.70;74.20;;;;;;5113518;28;20448;-72
2021/04/03 05:11:56;;;;;;;0.15;0.15;;;4.70;74.30;;;;;;5114006;28;20035;-73
2021/04/03 05:14:22;;;;;;;0.28;0.28;;;4.80;74.40;;;;;;5113720;28;20490;-73
2021/04/03 05:16:48;;;;;;;1.48;0.45;;;4.70;74.40;;;;;;5094845;28;20046;-73
2021/04/03 05:19:13;;;;;;;4.30;0.35;;;4.70;74.30;;;;;;5113115;28;20431;-72
2021/04/03 05:21:39;;;;;;;1.75;0.32;;;4.70;74.30;;;;;;5113442;28;20039;-73
2021/04/03 05:24:05;;;;;;;1.55;0.52;;;4.80;74.30;;;;;;5113324;28;20093;-72
2021/04/03 05:26:31;;;;;;;2.70;0.50;;;4.80;74.20;;;;;;5113695;28;20108;-72
2021/04/03 05:28:57;;;;;;;0.52;0.30;;;4.90;74.30;;;;;;5113631;28;20036;-74
2021/04/03 05:31:22;;;;;;;0.57;0.25;;;5.00;74.30;;;;;;5113801;28;20028;-72
2021/04/03 05:33:49;;;;;;;1.23;0.40;;;4.90;74.10;;;;;;5094281;28;20050;-72
2021/04/03 05:36:15;;;;;;;2.08;0.55;;;4.90;74.00;;;;;;5093909;28;20047;-72
2021/04/03 05:38:41;;;;;;;1.13;0.40;;;5.00;74.00;;;;;;5113074;28;20038;-72
2021/04/03 05:41:07;;;;;;;2.10;0.45;;;5.00;73.90;;;;;;5112973;28;20039;-72
2021/04/03 05:43:34;;;;;;;1.13;0.40;;;5.10;73.90;;;;;;5113577;28;20078;-72
2021/04/03 05:46:03;;;;;;;0.95;0.20;;;5.10;73.90;;;;;;5093696;28;20435;-72
2021/04/03 05:48:33;;;;;;;1.17;0.40;;;5.20;73.90;;;;;;5112838;28;20055;-72
2021/04/03 05:51:00;;;;;;;2.20;0.32;;;5.10;73.80;;;;;;5112911;28;20043;-72
2021/04/03 05:53:27;;;;;;;1.85;0.35;;;5.20;73.80;;;;;;5112916;28;20032;-72
2021/04/03 05:55:56;;;;;;;1.23;0.47;;;5.20;73.70;;;;;;5113344;28;20027;-72
2021/04/03 05:58:22;;;;;;;2.35;0.52;;;5.30;73.80;;;;;;5094343;28;20040;-72
2021/04/03 06:00:51;;;;;;;1.50;0.40;;;5.30;73.70;;;;;;5112841;28;20051;-71
2021/04/03 06:03:17;;;;;;;0.65;0.30;;;5.40;73.80;;;;;;5112777;28;20127;-72
2021/04/03 06:05:44;;;;;;;0.43;0.28;;;5.50;73.80;;;;;;5094751;28;20516;-72
2021/04/03 06:08:11;;;;;;;1.27;0.52;;;5.50;74.30;;;;;;5112792;28;20071;-72
2021/04/03 06:10:36;;;;;;;1.85;0.40;;;5.50;73.60;;;;;;5094221;28;20524;-73
2021/04/03 06:13:02;;;;;;;2.13;0.50;;;5.50;73.60;;;;;;5112681;28;20063;-72
2021/04/03 06:15:36;;;;;;;2.92;0.38;;;5.50;73.50;;;;;;5092746;28;20119;-73
2021/04/03 06:18:09;;;;;;;0.85;0.50;;;5.60;73.50;;;;;;5112945;28;20040;-72
2021/04/03 06:20:40;;;;;;;3.42;0.52;;;5.70;73.40;;;;;;5112306;28;20040;-73
2021/04/03 06:23:08;;;;;;;2.63;0.40;;;5.70;73.40;;;;;;5094048;28;20047;-72
2021/04/03 06:25:56;;;;;;;1.92;0.60;;;5.80;73.30;;;;;;5112760;28;20039;-72
2021/04/03 06:28:30;;;;;;;1.30;0.47;;;5.90;73.30;;;;;;5112271;28;20493;-72
2021/04/03 06:30:59;;;;;;;2.20;0.63;;;5.90;73.20;;;;;;5115113;28;20047;-73
2021/04/03 06:33:25;;;;;;;1.52;0.55;;;6.00;73.20;;;;;;5116398;28;20047;-72
2021/04/03 06:36:04;;;;;;;2.05;0.55;;;6.10;73.30;;;;;;5096801;28;20462;-73
2021/04/03 06:38:30;;;;;;;3.30;0.60;;;6.10;73.80;;;;;;5116147;28;20036;-72
2021/04/03 06:41:30;;;;;;;4.28;0.43;;;6.20;73.20;;;;;;5116005;28;20096;-72
2021/04/03 06:44:05;;;;;;;1.65;0.45;;;6.20;73.10;;;;;;5115901;28;20040;-72
2021/04/03 06:46:33;;;;;;;3.13;0.50;;;6.30;73.10;;;;;;5116452;28;20527;-72
2021/04/03 06:48:59;;;;;;;2.17;0.65;;;6.40;73.00;;;;;;5097608;28;20042;-73
2021/04/03 06:51:26;;;;;;;3.15;0.68;;;6.40;72.90;;;;;;5115710;28;20043;-73
2021/04/03 06:53:53;;;;;;;4.03;0.73;;;6.50;72.90;;;;;;5116401;28;20152;-72
2021/04/03 06:56:22;;;;;;;2.92;0.82;;;6.50;72.70;;;;;;5116280;28;20035;-73
2021/04/03 06:59:04;;;;;;;2.88;0.77;;;6.60;72.60;;;;;;5115786;28;20062;-72
2021/04/03 07:01:47;;;;;;;2.38;0.55;;;6.70;72.70;;;;;;5115526;28;20405;-73
2021/04/03 07:04:39;;;;;;;2.80;0.98;;;6.70;72.60;;;;;;5097050;28;20079;-73
2021/04/03 07:07:07;;;;;;;3.22;0.82;;;6.90;72.60;;;;;;5095662;28;20123;-73
2021/04/03 07:09:34;;;;;;;5.13;0.85;;;7.00;72.40;;;;;;5080686;28;20039;-73
2021/04/03 07:12:00;;;;;;;2.25;0.40;;;7.00;72.40;;;;;;5096585;28;20044;-72
2021/04/03 07:14:30;;;;;;;3.20;0.68;;;7.00;72.30;;;;;;5115353;28;20047;-73
2021/04/03 07:16:57;;;;;;;4.05;0.70;;;7.10;72.40;;;;;;5115069;28;20084;-73
2021/04/03 07:19:27;;;;;;;1.63;0.60;;;7.20;72.40;;;;;;5115322;28;20080;-72
2021/04/03 07:21:54;;;;;;;1.33;0.38;;;7.30;72.20;;;;;;5115808;28;20050;-73
2021/04/03 07:24:20;;;;;;;3.22;0.60;;;7.40;72.20;;;;;;5115058;28;20047;-73
2021/04/03 07:26:50;;;;;;;2.05;0.70;;;7.40;72.00;;;;;;5115191;28;20039;-73
2021/04/03 07:29:47;;;;;;;3.53;0.70;;;7.50;72.50;;;;;;5115307;28;20104;-72
2021/04/03 07:32:36;;;;;;;2.05;0.50;;;7.50;71.80;;;;;;5115072;28;20082;-73
2021/04/03 07:35:21;;;;;;;1.38;0.50;;;7.60;71.90;;;;;;5114265;28;20039;-72
2021/04/03 07:37:47;;;;;;;3.03;0.50;;;7.60;71.90;;;;;;5115009;28;20032;-72
2021/04/03 07:40:35;;;;;;;3.22;0.73;;;7.70;71.90;;;;;;5114940;28;20382;-73
2021/04/03 07:43:02;;;;;;;5.55;0.55;;;7.70;71.80;;;;;;5114936;28;20051;-73
2021/04/03 07:45:47;;;;;;;1.00;0.50;;;7.80;71.70;;;;;;5115064;28;20031;-73
2021/04/03 07:48:41;;;;;;;3.00;0.68;;;7.80;71.70;;;;;;5096811;28;20035;-73
2021/04/03 07:51:14;;;;;;;0.45;0.40;;;7.90;71.60;;;;;;5114764;28;20039;-73
2021/04/03 07:53:43;;;;;;;2.03;0.60;;;8.00;71.50;;;;;;5111947;28;20047;-73
2021/04/03 07:56:11;;;;;;;2.83;0.57;;;8.00;71.50;;;;;;5094805;28;20442;-73
2021/04/03 07:58:47;;;;;;;2.78;0.60;;;8.00;71.40;;;;;;5114893;28;20043;-72
2021/04/03 08:01:14;;;;;;;2.13;0.55;;;8.10;71.60;;;;;;5115337;28;20039;-73
2021/04/03 08:03:40;;;;;;;2.45;0.68;;;8.10;71.60;;;;;;5096891;28;20451;-73
2021/04/03 08:06:10;;;;;;;1.83;0.68;;;8.10;71.60;;;;;;5114810;28;20039;-73
2021/04/03 08:08:39;;;;;;;2.63;0.70;;;8.20;71.80;;;;;;5096244;28;20044;-73
2021/04/03 08:11:12;;;;;;;3.13;0.80;;;8.30;71.60;;;;;;5114356;28;20040;-73
2021/04/03 08:13:41;;;;;;;3.33;0.40;;;8.40;71.60;;;;;;5063148;28;20028;-73
2021/04/03 08:16:09;;;;;;;2.45;0.73;;;8.30;71.30;;;;;;5079984;28;20461;-73
2021/04/03 08:18:41;;;;;;;1.83;0.80;;;8.30;71.30;;;;;;5114666;28;20036;-73
2021/04/03 08:21:08;;;;;;;2.28;0.60;;;8.30;71.60;;;;;;5096810;28;20367;-74
2021/04/03 08:23:40;;;;;;;2.30;0.80;;;8.30;71.60;;;;;;5114201;28;20078;-72
2021/04/03 08:26:08;;;;;;;2.78;0.57;;;8.40;71.70;;;;;;5095499;28;20064;-73
2021/04/03 08:28:35;;;;;;;2.70;0.95;;;8.60;71.70;;;;;;5114319;28;20457;-72
2021/04/03 08:31:20;;;;;;;2.17;0.52;;;8.80;71.20;;;;;;5095963;28;20070;-73
2021/04/03 08:33:48;;;;;;;2.20;0.88;;;8.90;70.70;;;;;;5094861;28;20156;-73
2021/04/03 08:37:05;;;;;;;1.25;0.40;;;9.00;70.50;;;;;;5113334;28;20047;-74
2021/04/03 08:39:34;;;;;;;2.28;0.43;;;8.90;70.70;;;;;;5060870;28;20564;-73
2021/04/03 08:42:00;;;;;;;4.38;0.75;;;8.80;70.80;;;;;;5058502;28;20032;-74
2021/04/03 08:44:28;;;;;;;1.42;0.65;;;8.90;71.20;;;;;;5076750;28;20383;-73
2021/04/03 08:46:59;;;;;;;2.78;0.70;;;9.00;70.90;;;;;;5113933;28;20044;-73
2021/04/03 08:49:28;;;;;;;2.35;0.77;;;9.20;70.60;;;;;;5114221;28;20051;-74
2021/04/03 08:51:54;;;;;;;2.72;0.70;;;9.50;70.30;;;;;;5095025;28;20399;-74
2021/04/03 08:54:20;;;;;;;2.60;0.70;;;9.80;69.90;;;;;;5113726;28;20039;-75
2021/04/03 08:56:47;;;;;;;2.53;0.70;;;10.00;69.50;;;;;;5113927;28;20034;-74
2021/04/03 08:59:14;;;;;;;1.13;0.40;;;10.20;69.10;;;;;;5093654;28;20047;-73
2021/04/03 09:01:45;;;;;;;3.28;0.80;;;10.30;68.90;;;;;;5114270;28;20039;-74
2021/04/03 09:04:11;;;;;;;3.58;0.50;;;10.40;69.00;;;;;;5095573;28;20063;-74
2021/04/03 09:06:50;;;;;;;2.10;0.63;;;10.50;68.60;;;;;;5095506;28;20126;-74
2021/04/03 09:09:18;;;;;;;1.38;0.40;;;10.70;68.60;;;;;;5114103;28;20465;-74
2021/04/03 09:11:57;;;;;;;2.60;0.43;;;10.80;68.50;;;;;;5113771;28;20043;-73
2021/04/03 09:14:27;;;;;;;1.27;0.50;;;10.90;68.40;;;;;;5113246;28;20071;-74
2021/04/03 09:16:54;;;;;;;1.00;0.40;;;10.90;68.20;;;;;;5095654;28;20070;-73
2021/04/03 09:19:35;;;;;;;2.03;0.40;;;11.00;68.40;;;;;;5113969;28;20035;-74
2021/04/03 09:22:02;;;;;;;2.58;0.75;;;11.00;68.30;;;;;;5113436;28;20035;-74
2021/04/03 09:24:36;;;;;;;3.33;0.60;;;11.10;68.50;;;;;;5113352;28;20063;-74
2021/04/03 09:27:17;;;;;;;2.13;0.50;;;11.20;68.30;;;;;;5113398;28;20040;-75
2021/04/03 09:29:55;;;;;;;2.13;0.63;;;11.40;67.80;;;;;;5113069;28;20435;-77
2021/04/03 09:32:22;;;;;;;3.50;0.93;;;11.40;67.70;;;;;;5095008;28;20044;-74
2021/04/03 09:34:47;;;;;;;3.28;0.70;;;11.40;67.60;;;;;;5093185;28;20040;-77
2021/04/03 09:37:17;;;;;;;2.17;0.80;;;11.20;67.60;;;;;;5113267;28;20504;-74
2021/04/03 09:39:46;;;;;;;3.00;0.63;;;11.10;68.00;;;;;;5113159;28;20046;-74
2021/04/03 09:42:15;;;;;;;1.50;0.65;;;11.00;68.60;;;;;;5113240;28;20039;-73
2021/04/03 09:44:41;;;;;;;1.38;0.50;;;11.10;68.80;;;;;;5113628;28;20035;-75
2021/04/03 09:47:07;;;;;;;1.08;0.52;;;11.30;68.60;;;;;;5113451;28;20032;-74
2021/04/03 09:49:34;;;;;;;2.95;0.80;;;11.50;68.10;;;;;;5113112;28;20043;-74
2021/04/03 09:52:01;;;;;;;1.58;0.70;;;11.70;67.80;;;;;;5112893;28;20048;-74
2021/04/03 09:54:26;;;;;;;3.13;0.63;;;11.70;67.50;;;;;;5113423;28;20091;-74
2021/04/03 09:56:52;;;;;;;1.92;0.57;;;11.80;67.40;;;;;;5113571;28;20165;-74
2021/04/03 09:59:18;;;;;;;2.22;0.60;;;12.00;67.00;;;;;;5112929;28;20035;-74
2021/04/03 10:01:43;;;;;;;2.10;0.70;;;12.00;66.90;;;;;;5094659;28;20051;-74
2021/04/03 10:04:09;;;;;;;1.00;0.40;;;11.90;67.00;;;;;;5111934;28;20046;-74
2021/04/03 10:06:35;;;;;;;1.90;0.60;;;11.90;67.20;;;;;;5112755;28;20036;-73
2021/04/03 10:09:01;;;;;;;2.55;0.80;;;12.00;67.30;;;;;;5113022;28;20044;-75
2021/04/03 10:11:26;;;;;;;2.88;0.60;;;11.90;67.20;;;;;;5093502;28;20049;-74
2021/04/03 10:13:52;;;;;;;1.90;0.55;;;11.90;67.20;;;;;;5112695;28;20042;-74
2021/04/03 10:16:18;;;;;;;3.65;0.70;;;12.00;67.30;;;;;;5094577;28;20039;-74
2021/04/03 10:18:43;;;;;;;2.72;0.70;;;12.10;67.10;;;;;;5112282;28;20038;-73
2021/04/03 10:21:10;;;;;;;1.95;0.60;;;12.30;66.70;;;;;;5112447;28;20089;-73
2021/04/03 10:23:36;;;;;;;2.33;0.45;;;12.50;66.40;;;;;;5112912;28;20043;-73
2021/04/03 10:26:03;;;;;;;0.88;0.55;;;12.50;65.90;;;;;;5112812;28;20451;-74
2021/04/03 10:28:28;;;;;;;2.20;0.55;;;12.50;65.80;;;;;;5112107;28;20043;-74
2021/04/03 10:30:54;;;;;;;1.70;0.60;;;12.60;65.60;;;;;;5112466;28;20047;-74
2021/04/03 10:33:20;;;;;;;0.75;0.50;;;12.60;65.50;;;;;;5112631;28;20043;-73
2021/04/03 10:35:46;;;;;;;2.13;0.70;;;12.70;65.10;;;;;;5094359;28;20434;-73
2021/04/03 10:38:11;;;;;;;2.97;0.85;;;12.70;65.10;;;;;;5112963;28;20111;-73
2021/04/03 10:40:37;;;;;;;3.42;0.88;;;12.50;65.10;;;;;;5112964;28;20130;-74
2021/04/03 10:43:03;;;;;;;3.55;1.10;;;12.50;65.20;;;;;;5077209;28;20051;-73
2021/04/03 10:45:29;;;;;;;3.53;0.98;;;12.50;65.10;;;;;;5112498;28;20031;-73
2021/04/03 10:47:56;;;;;;;2.53;0.73;;;12.30;65.20;;;;;;5112479;28;20043;-73
2021/04/03 10:50:22;;;;;;;2.20;0.95;;;12.10;65.80;;;;;;5112720;28;20155;-74
2021/04/03 10:52:47;;;;;;;2.45;0.95;;;12.00;66.20;;;;;;5093826;28;20040;-73
2021/04/03 10:55:14;;;;;;;3.67;0.93;;;12.10;66.20;;;;;;5113029;28;20032;-73
2021/04/03 10:57:39;;;;;;;2.60;0.80;;;12.30;65.90;;;;;;5112384;28;20048;-73
2021/04/03 11:00:06;;;;;;;2.25;0.70;;;12.40;65.30;;;;;;5112391;28;20142;-73
2021/04/03 11:02:32;;;;;;;1.98;0.70;;;12.80;65.70;;;;;;5112477;28;20044;-73
2021/04/03 11:04:58;;;;;;;1.83;0.90;;;13.00;64.20;;;;;;5112695;28;20051;-74
2021/04/03 11:07:24;;;;;;;3.13;0.90;;;13.00;63.70;;;;;;5112043;28;20047;-74
2021/04/03 11:09:49;;;;;;;2.47;0.88;;;12.90;63.90;;;;;;5112086;28;20040;-74
2021/04/03 11:12:15;;;;;;;4.22;0.90;;;12.50;64.00;;;;;;5112146;28;20397;-74
2021/04/03 11:14:42;;;;;;;3.50;0.70;;;12.50;64.40;;;;;;5093850;28;20055;-74
2021/04/03 11:17:09;;;;;;;2.78;0.63;;;12.70;64.60;;;;;;5114628;28;20024;-73
2021/04/03 11:19:35;;;;;;;1.95;0.80;;;12.80;64.20;;;;;;5116172;28;20043;-74
2021/04/03 11:22:01;;;;;;;0.75;0.35;;;13.00;63.90;;;;;;5115785;28;20126;-74
2021/04/03 11:24:27;;;;;;;2.47;0.90;;;13.20;63.60;;;;;;5115252;28;20040;-74
2021/04/03 11:26:53;;;;;;;2.20;0.80;;;13.50;63.00;;;;;;5115203;28;20039;-73
2021/04/03 11:29:19;;;;;;;1.23;0.45;;;13.50;62.50;;;;;;5096279;28;20035;-73
2021/04/03 11:31:44;;;;;;;1.88;0.80;;;13.50;62.40;;;;;;5115158;28;20069;-73
2021/04/03 11:34:10;;;;;;;1.25;0.77;;;13.70;62.60;;;;;;5096891;28;20039;-73
2021/04/03 11:36:36;;;;;;;2.55;0.60;;;13.70;62.00;;;;;;5095849;28;20039;-73
2021/04/03 11:39:02;;;;;;;2.15;0.70;;;13.80;61.90;;;;;;5115277;28;20512;-73
2021/04/03 11:41:28;;;;;;;1.67;0.90;;;13.70;62.00;;;;;;5115500;28;20401;-73
2021/04/03 11:43:55;;;;;;;1.80;0.75;;;13.70;61.90;;;;;;5096110;28;20048;-74
2021/04/03 11:46:21;;;;;;;1.25;0.55;;;13.80;61.70;;;;;;5096077;28;20101;-73
2021/04/03 11:48:47;;;;;;;2.42;0.93;;;13.80;61.80;;;;;;5114807;28;20047;-74
2021/04/03 11:51:13;;;;;;;0.98;0.50;;;13.90;61.90;;;;;;5114389;28;20044;-73
2021/04/03 11:53:39;;;;;;;1.02;0.60;;;14.00;61.40;;;;;;5114750;28;20067;-74
2021/04/03 11:56:05;;;;;;;1.55;0.70;;;14.00;60.80;;;;;;5114918;28;20028;-74
2021/04/03 11:58:31;;;;;;;3.33;0.70;;;13.80;61.20;;;;;;5096133;28;20485;-73
2021/04/03 12:00:58;;;;;;;1.60;0.85;;;13.70;61.50;;;;;;5114725;28;20044;-73
2021/04/03 12:03:24;;;;;;;1.75;0.68;;;13.70;61.90;;;;;;5114673;28;20115;-73
2021/04/03 12:05:49;;;;;;;2.45;0.80;;;13.80;61.60;;;;;;5094828;28;20093;-72
2021/04/03 12:08:15;;;;;;;5.43;1.15;;;13.80;62.00;;;;;;5115188;28;20031;-73
2021/04/03 12:10:41;;;;;;;2.05;0.68;;;13.90;61.20;;;;;;5114716;28;20404;-73
2021/04/03 12:13:07;;;;;;;2.33;0.95;;;14.10;61.20;;;;;;5114878;28;20115;-73
2021/04/03 12:15:32;;;;;;;1.38;0.75;;;14.30;60.70;;;;;;5114777;28;20512;-73
2021/04/03 12:17:58;;;;;;;2.90;1.00;;;14.40;60.10;;;;;;5096695;28;20040;-73
2021/04/03 12:20:24;;;;;;;1.88;0.80;;;14.40;60.10;;;;;;5114628;28;20036;-74
2021/04/03 12:22:50;;;;;;;2.35;0.77;;;14.50;60.10;;;;;;5114571;28;20039;-72
2021/04/03 12:25:15;;;;;;;2.00;0.88;;;14.50;60.00;;;;;;5096842;28;20055;-73
2021/04/03 12:27:42;;;;;;;2.42;0.75;;;14.50;59.50;;;;;;5113486;28;20435;-73
2021/04/03 12:30:08;;;;;;;2.65;0.70;;;14.50;59.90;;;;;;5114288;28;20393;-73
2021/04/03 12:32:34;;;;;;;1.33;0.70;;;14.50;59.50;;;;;;5113849;28;20123;-73
2021/04/03 12:35:00;;;;;;;2.38;0.80;;;14.40;59.60;;;;;;5095720;28;20496;-73
2021/04/03 12:37:26;;;;;;;1.75;0.55;;;14.20;60.00;;;;;;5114349;28;20118;-72
2021/04/03 12:39:52;;;;;;;1.00;0.50;;;14.10;60.30;;;;;;5113995;28;20118;-73
2021/04/03 12:42:18;;;;;;;2.72;0.73;;;14.00;60.70;;;;;;5113798;28;20035;-72
2021/04/03 12:44:44;;;;;;;2.15;0.65;;;14.20;60.50;;;;;;5113874;28;20358;-73
2021/04/03 12:47:10;;;;;;;2.45;0.82;;;14.50;60.00;;;;;;5096223;28;20028;-73
2021/04/03 12:49:35;;;;;;;1.58;0.50;;;14.70;59.40;;;;;;5114087;28;20039;-72
2021/04/03 12:52:02;;;;;;;1.90;0.68;;;14.80;58.90;;;;;;5096116;28;20040;-73
2021/04/03 12:54:28;;;;;;;1.58;0.90;;;14.70;59.00;;;;;;5095472;28;20066;-73
2021/04/03 12:56:53;;;;;;;1.73;0.70;;;14.60;59.30;;;;;;5096097;28;20059;-73
2021/04/03 12:59:19;;;;;;;1.10;0.65;;;14.30;59.40;;;;;;5095733;28;20044;-73
2021/04/03 13:01:45;;;;;;;2.80;0.80;;;14.30;59.90;;;;;;5113720;28;20061;-73